Time;durP1;ratioP1;P1;durP2;ratioP2;P2;SDS_P1;SDS_P2;PMS_P1;PMS_P2;Temp;Humidity;BMP_temperature;BMP_pressure;BME280_temperature;BME280_humidity;BME280_pressure;Samples;Min_cycle;Max_cycle;Signal;HPM_P1;HPM_P2
2021/10/26 00:00:37;;;;;;;64.50;39.88;;;;;;;10.06;100.00;101661.53;5014065;28;20029;-62
2021/10/26 00:03:02;;;;;;;66.53;37.95;;;;;;;10.00;100.00;101658.75;5013650;28;20498;-66
2021/10/26 00:05:28;;;;;;;65.57;37.88;;;;;;;10.00;100.00;101665.78;5013834;28;20033;-62
2021/10/26 00:07:53;;;;;;;66.97;40.25;;;;;;;9.95;100.00;101663.94;5013749;28;20022;-66
2021/10/26 00:10:18;;;;;;;70.72;39.97;;;;;;;9.92;100.00;101666.53;5013913;28;20067;-63
2021/10/26 00:12:44;;;;;;;73.50;41.60;;;;;;;9.94;100.00;101679.75;5013894;28;20022;-66
2021/10/26 00:15:10;;;;;;;69.60;41.40;;;;;;;9.91;100.00;101677.94;5013557;28;20169;-62
2021/10/26 00:17:36;;;;;;;71.63;41.38;;;;;;;9.88;100.00;101671.72;5013527;28;20117;-64
2021/10/26 00:20:04;;;;;;;71.93;41.58;;;;;;;9.93;100.00;101681.53;5013602;28;20064;-65
2021/10/26 00:22:29;;;;;;;69.78;40.40;;;;;;;9.94;100.00;101682.41;5012098;28;20021;-62
2021/10/26 00:24:54;;;;;;;70.60;37.75;;;;;;;9.99;100.00;101680.75;5013285;28;20505;-65
2021/10/26 00:27:20;;;;;;;71.05;41.38;;;;;;;10.01;100.00;101681.66;5013746;28;20029;-64
2021/10/26 00:29:45;;;;;;;72.78;41.38;;;;;;;10.01;100.00;101684.31;5011939;28;20490;-62
2021/10/26 00:32:10;;;;;;;73.70;42.05;;;;;;;10.02;100.00;101680.81;5013499;28;20473;-64
2021/10/26 00:34:36;;;;;;;69.10;40.28;;;;;;;10.04;100.00;101684.38;5013483;28;20037;-68
2021/10/26 00:37:02;;;;;;;71.22;40.35;;;;;;;10.09;100.00;101688.00;5013485;28;20420;-68
2021/10/26 00:39:27;;;;;;;68.13;41.83;;;;;;;10.07;100.00;101688.81;5013361;28;20025;-66
2021/10/26 00:41:54;;;;;;;67.68;39.10;;;;;;;10.15;100.00;101687.22;5013219;28;20032;-69
2021/10/26 00:44:20;;;;;;;74.03;42.13;;;;;;;10.14;100.00;101688.09;5009430;28;20030;-68
2021/10/26 00:46:47;;;;;;;66.50;38.85;;;;;;;10.15;100.00;101689.88;5013165;28;20038;-69
2021/10/26 00:49:13;;;;;;;72.70;41.08;;;;;;;10.10;100.00;101684.47;5012663;28;20022;-68
2021/10/26 00:51:39;;;;;;;68.40;40.17;;;;;;;10.00;100.00;101679.88;5013085;28;20026;-68
2021/10/26 00:54:06;;;;;;;77.88;41.78;;;;;;;9.95;100.00;101694.75;5013194;28;20104;-67
2021/10/26 00:56:32;;;;;;;77.22;43.05;;;;;;;9.92;100.00;101694.69;5012948;28;20083;-69
2021/10/26 00:58:58;;;;;;;77.55;42.42;;;;;;;9.90;100.00;101694.66;5012902;28;20045;-69
2021/10/26 01:01:24;;;;;;;73.68;41.17;;;;;;;9.87;100.00;101697.25;5013143;28;20108;-68
2021/10/26 01:03:50;;;;;;;82.97;46.08;;;;;;;9.88;100.00;101700.75;5008942;28;20060;-68
2021/10/26 01:06:16;;;;;;;81.18;44.25;;;;;;;9.84;100.00;101704.19;5012888;28;20026;-69
2021/10/26 01:08:42;;;;;;;75.72;42.05;;;;;;;9.84;100.00;101696.28;5013197;28;20408;-66
2021/10/26 01:11:07;;;;;;;81.18;41.53;;;;;;;9.79;100.00;101700.59;5013074;28;20025;-66
2021/10/26 01:13:33;;;;;;;81.60;44.45;;;;;;;9.75;100.00;101697.84;5012934;28;20028;-69
2021/10/26 01:15:59;;;;;;;81.78;44.78;;;;;;;9.65;100.00;101695.88;5012878;28;20071;-66
2021/10/26 01:18:25;;;;;;;77.05;43.33;;;;;;;9.61;100.00;101694.06;5012806;28;20076;-63
2021/10/26 01:20:52;;;;;;;81.32;43.55;;;;;;;9.59;100.00;101706.31;5008750;28;20057;-63
2021/10/26 01:23:18;;;;;;;86.85;44.22;;;;;;;9.54;100.00;101707.97;5012922;28;20026;-64
2021/10/26 01:25:43;;;;;;;87.25;46.60;;;;;;;9.53;100.00;101714.09;5012957;28;20041;-62
2021/10/26 01:28:09;;;;;;;83.07;44.05;;;;;;;9.50;100.00;101708.75;5012620;28;20022;-62
2021/10/26 01:30:35;;;;;;;90.40;47.10;;;;;;;9.50;100.00;101714.91;5013087;28;20080;-63
2021/10/26 01:33:02;;;;;;;91.50;46.17;;;;;;;9.55;100.00;101715.00;5012654;28;20474;-64
2021/10/26 01:35:28;;;;;;;83.13;44.55;;;;;;;9.58;100.00;101710.72;5012464;28;20030;-60
2021/10/26 01:37:53;;;;;;;82.22;43.05;;;;;;;9.58;100.00;101716.00;5012934;28;20491;-62
2021/10/26 01:40:19;;;;;;;79.82;42.35;;;;;;;9.57;100.00;101721.22;5011248;28;20026;-63
2021/10/26 01:42:45;;;;;;;89.72;46.55;;;;;;;9.52;100.00;101705.31;5012629;28;20042;-65
2021/10/26 01:45:11;;;;;;;87.63;45.63;;;;;;;9.44;100.00;101712.16;5012623;28;20026;-61
2021/10/26 01:47:37;;;;;;;87.63;44.92;;;;;;;9.38;100.00;101712.00;5012382;28;20168;-63
2021/10/26 01:50:05;;;;;;;85.65;45.10;;;;;;;9.31;100.00;101708.31;5012656;28;20018;-63
2021/10/26 01:52:30;;;;;;;87.18;46.33;;;;;;;9.29;100.00;101712.69;5012362;28;20018;-62
2021/10/26 01:54:56;;;;;;;83.82;44.20;;;;;;;9.27;100.00;101713.50;5012627;28;20393;-64
2021/10/26 01:57:22;;;;;;;90.28;45.10;;;;;;;9.23;100.00;101721.34;5012666;28;20508;-66
2021/10/26 01:59:48;;;;;;;93.05;46.78;;;;;;;9.21;100.00;101717.75;5013624;28;20022;-62
2021/10/26 02:02:13;;;;;;;92.07;44.60;;;;;;;9.23;100.00;101712.53;5016226;28;20022;-65
2021/10/26 02:04:39;;;;;;;91.53;45.65;;;;;;;9.23;100.00;101715.16;5016196;28;20469;-63
2021/10/26 02:07:05;;;;;;;85.65;43.42;;;;;;;9.27;100.00;101721.41;5015753;28;20034;-65
2021/10/26 02:09:31;;;;;;;95.85;46.88;;;;;;;9.28;100.00;101718.81;5015925;28;20022;-63
2021/10/26 02:11:57;;;;;;;91.15;46.13;;;;;;;9.34;100.00;101721.59;5016126;28;20029;-63
2021/10/26 02:14:22;;;;;;;90.10;44.65;;;;;;;9.35;100.00;101714.53;5015773;28;20036;-67
2021/10/26 02:16:48;;;;;;;82.68;42.97;;;;;;;9.37;100.00;101711.09;5015692;28;20022;-64
2021/10/26 02:19:14;;;;;;;88.70;45.35;;;;;;;9.41;100.00;101717.34;5016162;28;20030;-61
2021/10/26 02:21:40;;;;;;;80.25;42.92;;;;;;;9.42;100.00;101708.56;5015914;28;20457;-64
2021/10/26 02:24:05;;;;;;;80.45;41.55;;;;;;;9.39;100.00;101706.75;5015439;28;20137;-62
2021/10/26 02:26:31;;;;;;;84.25;43.83;;;;;;;9.37;100.00;101700.53;5015952;28;20518;-64
2021/10/26 02:28:57;;;;;;;83.03;43.63;;;;;;;9.39;100.00;101704.13;5015775;28;20069;-65
2021/10/26 02:31:22;;;;;;;86.78;42.53;;;;;;;9.39;100.00;101712.03;5015825;28;20032;-64
2021/10/26 02:33:47;;;;;;;87.20;44.40;;;;;;;9.41;100.00;101720.88;5015470;28;20030;-62
2021/10/26 02:36:13;;;;;;;84.03;42.55;;;;;;;9.39;100.00;101719.97;5015407;28;20030;-62
2021/10/26 02:38:38;;;;;;;82.15;40.30;;;;;;;9.43;100.00;101715.63;5015447;28;20033;-63
2021/10/26 02:41:03;;;;;;;77.82;40.58;;;;;;;9.42;100.00;101716.47;5015622;28;20082;-67
2021/10/26 02:43:30;;;;;;;80.75;41.25;;;;;;;9.45;100.00;101719.22;5015323;28;20045;-68
2021/10/26 02:45:56;;;;;;;82.57;41.83;;;;;;;9.40;100.00;101721.72;5015491;28;20104;-66
2021/10/26 02:48:21;;;;;;;81.50;41.83;;;;;;;9.40;100.00;101716.44;5011508;28;20022;-65
2021/10/26 02:50:47;;;;;;;80.80;42.50;;;;;;;9.39;100.00;101719.03;5015140;28;20022;-66
2021/10/26 02:53:14;;;;;;;78.50;39.80;;;;;;;9.42;100.00;101722.66;5015279;28;20026;-64
2021/10/26 02:55:39;;;;;;;84.65;41.80;;;;;;;9.41;100.00;101726.16;5015072;28;20021;-68
2021/10/26 02:58:05;;;;;;;79.97;41.65;;;;;;;9.43;100.00;101729.69;5014955;28;20038;-66
2021/10/26 03:00:30;;;;;;;77.38;40.95;;;;;;;9.45;100.00;101723.56;5015094;28;20025;-66
2021/10/26 03:02:55;;;;;;;82.70;41.80;;;;;;;9.50;100.00;101733.38;5014920;28;20120;-66
2021/10/26 03:05:21;;;;;;;80.97;40.75;;;;;;;9.51;100.00;101729.91;5010850;28;20022;-66
2021/10/26 03:07:46;;;;;;;78.07;40.67;;;;;;;9.50;100.00;101735.16;5014946;28;20076;-65
2021/10/26 03:10:13;;;;;;;77.80;40.63;;;;;;;9.52;100.00;101736.06;5013483;28;20026;-67
2021/10/26 03:12:38;;;;;;;80.80;41.13;;;;;;;9.53;100.00;101735.22;5014186;28;20026;-63
2021/10/26 03:15:06;;;;;;;80.03;41.08;;;;;;;9.53;100.00;101741.38;5015189;28;20025;-66
2021/10/26 03:17:31;;;;;;;83.80;41.05;;;;;;;9.55;100.00;101739.69;5014918;28;20469;-68
2021/10/26 03:19:57;;;;;;;82.10;40.13;;;;;;;9.57;100.00;101745.88;5014767;28;20061;-66
2021/10/26 03:22:22;;;;;;;85.55;43.35;;;;;;;9.56;100.00;101749.34;5014606;28;20193;-66
2021/10/26 03:24:48;;;;;;;84.50;43.45;;;;;;;9.59;100.00;101743.25;5014127;28;20085;-66
2021/10/26 03:27:13;;;;;;;81.53;43.08;;;;;;;9.59;100.00;101748.53;5014625;28;20503;-65
2021/10/26 03:29:39;;;;;;;81.43;42.67;;;;;;;9.60;100.00;101740.66;5014465;28;20022;-65
2021/10/26 03:32:05;;;;;;;89.78;44.38;;;;;;;9.63;100.00;101736.31;5014433;28;20448;-63
2021/10/26 03:34:30;;;;;;;85.97;43.85;;;;;;;9.63;100.00;101739.84;5014505;28;20021;-64
2021/10/26 03:36:56;;;;;;;97.38;46.53;;;;;;;9.66;100.00;101745.19;5014292;28;20461;-62
2021/10/26 03:39:21;;;;;;;96.05;44.67;;;;;;;9.62;100.00;101743.34;5010077;28;20428;-61
2021/10/26 03:41:47;;;;;;;88.85;46.00;;;;;;;9.64;100.00;101746.00;5014324;28;20037;-63
2021/10/26 03:44:12;;;;;;;90.80;44.60;;;;;;;9.65;100.00;101753.06;5014259;28;20026;-63
2021/10/26 03:46:37;;;;;;;93.93;46.97;;;;;;;9.65;100.00;101745.16;5013969;28;20029;-63
2021/10/26 03:49:04;;;;;;;93.22;46.13;;;;;;;9.64;100.00;101746.91;5014247;28;20032;-61
2021/10/26 03:51:30;;;;;;;89.38;44.83;;;;;;;9.65;100.00;101750.44;5014045;28;20501;-62
2021/10/26 03:53:58;;;;;;;84.18;44.75;;;;;;;9.65;100.00;101758.34;5014002;28;20022;-64
2021/10/26 03:56:23;;;;;;;91.95;46.08;;;;;;;9.61;100.00;101752.13;5010497;28;20057;-66
2021/10/26 03:58:49;;;;;;;95.53;47.38;;;;;;;9.60;100.00;101760.91;5013738;28;20385;-63
2021/10/26 04:01:15;;;;;;;91.35;46.50;;;;;;;9.58;100.00;101757.31;5013821;28;20030;-62
2021/10/26 04:03:41;;;;;;;89.70;46.00;;;;;;;9.59;100.00;101749.41;5013969;28;20539;-66
2021/10/26 04:06:08;;;;;;;89.88;44.92;;;;;;;9.60;100.00;101745.06;5013555;28;20041;-67
2021/10/26 04:08:58;;;;;;;83.38;43.95;;;;;;;9.60;100.00;101759.13;5014202;28;20030;-64
2021/10/26 04:11:22;;;;;;;100.15;47.90;;;;;;;9.53;100.00;101757.22;5013476;28;20037;-62
2021/10/26 04:13:48;;;;;;;95.35;45.67;;;;;;;9.51;100.00;101753.66;5013777;28;20101;-61
2021/10/26 04:16:13;;;;;;;91.38;44.80;;;;;;;9.51;100.00;101760.66;5013532;28;20101;-61
2021/10/26 04:18:39;;;;;;;94.85;45.38;;;;;;;9.49;100.00;101757.13;5013521;28;20060;-61
2021/10/26 04:21:05;;;;;;;91.78;45.58;;;;;;;9.49;100.00;101757.13;5013718;28;20021;-61
2021/10/26 04:23:32;;;;;;;93.60;45.40;;;;;;;9.56;100.00;101759.03;5012415;28;20565;-61
2021/10/26 04:25:58;;;;;;;90.43;44.75;;;;;;;9.48;100.00;101756.22;5013786;28;20037;-61
2021/10/26 04:28:23;;;;;;;99.97;47.95;;;;;;;9.45;100.00;101765.81;5013914;28;20104;-61
2021/10/26 04:30:49;;;;;;;98.93;46.85;;;;;;;9.43;100.00;101769.28;5013573;28;20079;-61
2021/10/26 04:33:15;;;;;;;103.82;49.45;;;;;;;9.38;100.00;101781.50;5013822;28;20500;-61
2021/10/26 04:35:41;;;;;;;99.28;47.00;;;;;;;9.36;100.00;101779.69;5013218;28;20033;-61
2021/10/26 04:38:07;;;;;;;103.60;48.67;;;;;;;9.33;100.00;101777.84;5013157;28;20052;-61
2021/10/26 04:40:33;;;;;;;105.10;48.28;;;;;;;9.32;100.00;101776.09;5013178;28;20033;-62
2021/10/26 04:43:00;;;;;;;107.70;50.15;;;;;;;9.31;100.00;101786.59;5013437;28;20116;-62
2021/10/26 04:45:25;;;;;;;110.78;50.58;;;;;;;9.30;100.00;101783.06;5012139;28;20053;-61
2021/10/26 04:47:51;;;;;;;106.95;49.20;;;;;;;9.29;100.00;101790.94;5013251;28;20511;-60
2021/10/26 04:50:17;;;;;;;106.40;49.58;;;;;;;9.27;100.00;101788.25;5013065;28;20042;-63
2021/10/26 04:52:43;;;;;;;103.13;47.88;;;;;;;9.32;100.00;101794.56;5012975;28;20084;-62
2021/10/26 04:55:09;;;;;;;114.95;49.75;;;;;;;9.29;100.00;101789.22;5013098;28;20053;-62
2021/10/26 04:57:34;;;;;;;104.40;47.45;;;;;;;9.27;100.00;101782.09;5013228;28;20022;-64
2021/10/26 05:00:00;;;;;;;103.72;47.25;;;;;;;9.29;100.00;101778.66;5013219;28;20036;-62
2021/10/26 05:02:26;;;;;;;111.43;49.05;;;;;;;9.26;100.00;101781.19;5013129;28;20475;-62
2021/10/26 05:04:51;;;;;;;116.13;50.78;;;;;;;9.23;100.00;101781.13;5012863;28;20030;-62
2021/10/26 05:07:17;;;;;;;111.57;50.15;;;;;;;9.20;100.00;101773.13;5012734;28;20068;-62
2021/10/26 05:09:43;;;;;;;121.95;52.50;;;;;;;9.19;100.00;101781.91;5013159;28;20121;-62
2021/10/26 05:12:08;;;;;;;108.72;48.50;;;;;;;9.21;100.00;101781.06;5012966;28;20029;-62
2021/10/26 05:14:34;;;;;;;117.40;50.15;;;;;;;9.19;100.00;101790.72;5013027;28;20080;-62
2021/10/26 05:17:01;;;;;;;115.40;49.78;;;;;;;9.21;100.00;101788.13;5013074;28;20026;-62
2021/10/26 05:19:28;;;;;;;121.15;52.83;;;;;;;9.16;100.00;101789.72;5012640;28;20033;-63
2021/10/26 05:21:54;;;;;;;116.25;50.33;;;;;;;9.16;100.00;101792.38;5005250;28;20101;-66
2021/10/26 05:24:19;;;;;;;115.63;52.22;;;;;;;9.17;100.00;101799.44;5004064;28;20137;-67
2021/10/26 05:26:45;;;;;;;114.78;50.60;;;;;;;9.12;100.00;101801.09;5002116;28;20458;-68
2021/10/26 05:29:11;;;;;;;114.03;49.67;;;;;;;9.11;100.00;101796.66;5003022;28;20049;-69
2021/10/26 05:31:38;;;;;;;116.93;48.70;;;;;;;9.10;100.00;101789.59;5008544;28;20033;-66
2021/10/26 05:34:08;;;;;;;119.00;46.88;;;;;;;9.08;100.00;101797.47;5012231;28;20018;-67
2021/10/26 05:36:34;;;;;;;123.25;49.75;;;;;;;9.08;100.00;101794.81;5011186;28;20030;-65
2021/10/26 05:38:59;;;;;;;122.93;50.72;;;;;;;9.01;100.00;101804.34;5019723;28;20429;-66
2021/10/26 05:41:27;;;;;;;115.05;49.92;;;;;;;9.01;100.00;101806.97;5015141;28;20018;-67
2021/10/26 05:43:52;;;;;;;127.38;50.10;;;;;;;8.96;100.00;101811.22;5012092;28;20096;-67
2021/10/26 05:46:18;;;;;;;124.43;50.58;;;;;;;8.97;100.00;101813.00;5016451;28;20045;-66
2021/10/26 05:48:43;;;;;;;127.57;51.42;;;;;;;8.93;100.00;101808.50;5008541;28;20022;-69
2021/10/26 05:51:09;;;;;;;131.45;53.17;;;;;;;8.92;100.00;101814.63;5017300;28;20037;-64
2021/10/26 05:53:34;;;;;;;121.78;50.33;;;;;;;8.92;100.00;101819.03;5009054;28;20098;-67
2021/10/26 05:56:01;;;;;;;112.43;47.40;;;;;;;8.98;100.00;101822.69;5012851;28;20543;-68
2021/10/26 05:58:26;;;;;;;128.35;51.65;;;;;;;8.90;100.00;101830.41;5014526;28;20034;-68
2021/10/26 06:00:52;;;;;;;120.65;48.55;;;;;;;8.91;100.00;101839.19;5011682;28;20380;-64
2021/10/26 06:03:18;;;;;;;124.10;51.00;;;;;;;8.91;100.00;101839.19;5018665;28;20076;-64
2021/10/26 06:05:44;;;;;;;130.57;51.15;;;;;;;8.88;100.00;101841.75;5009331;28;20018;-64
2021/10/26 06:08:09;;;;;;;115.15;48.97;;;;;;;8.87;100.00;101840.00;5013187;28;20025;-62
2021/10/26 06:10:44;;;;;;;125.47;52.05;;;;;;;8.89;100.00;101854.09;5018242;28;20027;-63
2021/10/26 06:13:12;;;;;;;123.13;48.65;;;;;;;8.88;100.00;101844.41;5018863;28;20034;-64
2021/10/26 06:15:39;;;;;;;121.45;50.70;;;;;;;8.87;100.00;101853.19;5011504;28;20061;-64
2021/10/26 06:18:05;;;;;;;118.40;48.65;;;;;;;8.88;100.00;101868.13;5017852;28;20477;-64
2021/10/26 06:20:30;;;;;;;115.75;48.65;;;;;;;8.86;100.00;101859.28;5014260;28;20025;-64
2021/10/26 06:22:56;;;;;;;111.53;47.90;;;;;;;8.89;100.00;101864.66;5016040;28;20033;-63
2021/10/26 06:25:21;;;;;;;116.75;48.95;;;;;;;8.86;100.00;101859.28;5013383;28;20129;-63
2021/10/26 06:27:47;;;;;;;124.80;50.20;;;;;;;8.83;100.00;101864.50;5017641;28;20026;-62
2021/10/26 06:30:12;;;;;;;121.80;47.70;;;;;;;8.84;100.00;101872.44;5020328;28;20030;-62
2021/10/26 06:32:42;;;;;;;121.38;48.92;;;;;;;8.85;100.00;101881.22;5016639;28;20527;-63
2021/10/26 06:35:11;;;;;;;113.47;46.58;;;;;;;8.85;100.00;101878.59;5019604;28;20030;-63
2021/10/26 06:37:41;;;;;;;111.40;46.40;;;;;;;8.88;100.00;101876.03;5014226;28;20033;-62
2021/10/26 06:40:07;;;;;;;106.78;44.33;;;;;;;8.92;100.00;101861.22;5015567;28;20085;-62
2021/10/26 06:42:33;;;;;;;103.15;45.67;;;;;;;8.89;100.00;101867.28;5020698;28;20030;-65
2021/10/26 06:44:59;;;;;;;109.05;44.90;;;;;;;8.89;100.00;101864.66;5012814;28;20080;-63
2021/10/26 06:47:25;;;;;;;102.68;43.95;;;;;;;8.93;100.00;101865.59;5015046;28;20033;-63
2021/10/26 06:49:50;;;;;;;92.55;41.97;;;;;;;8.92;100.00;101864.72;5008904;28;20026;-64
2021/10/26 06:52:16;;;;;;;106.03;43.13;;;;;;;8.92;100.00;101859.44;5018361;28;20029;-62
2021/10/26 06:54:42;;;;;;;92.57;39.83;;;;;;;8.94;100.00;101870.03;5017831;28;20021;-61
2021/10/26 06:57:08;;;;;;;97.10;42.15;;;;;;;8.92;100.00;101866.47;5022002;28;20030;-63
2021/10/26 06:59:34;;;;;;;94.65;40.50;;;;;;;8.90;100.00;101882.28;5012608;28;20022;-63
2021/10/26 07:02:00;;;;;;;82.80;38.45;;;;;;;9.00;100.00;101870.19;5013297;28;20017;-63
2021/10/26 07:04:25;;;;;;;85.55;38.40;;;;;;;8.97;100.00;101878.03;5018978;28;20026;-62
2021/10/26 07:06:51;;;;;;;95.35;39.45;;;;;;;8.99;100.00;101877.22;5015087;28;20041;-63
2021/10/26 07:09:17;;;;;;;84.03;38.45;;;;;;;8.95;100.00;101879.75;5014290;28;20377;-62
2021/10/26 07:11:42;;;;;;;86.78;38.50;;;;;;;8.92;100.00;101877.03;5017355;28;20052;-62
2021/10/26 07:14:08;;;;;;;78.05;37.13;;;;;;;8.99;100.00;101885.16;5012703;28;20041;-62
2021/10/26 07:16:34;;;;;;;84.50;38.00;;;;;;;8.99;100.00;101887.78;5016689;28;20104;-63
2021/10/26 07:18:59;;;;;;;83.55;37.42;;;;;;;8.99;100.00;101893.06;5015213;28;20030;-63
2021/10/26 07:21:24;;;;;;;84.25;39.13;;;;;;;9.03;100.00;101899.31;5011860;28;20041;-63
2021/10/26 07:23:50;;;;;;;71.40;36.55;;;;;;;9.05;100.00;101897.63;5006013;28;20038;-63
2021/10/26 07:26:15;;;;;;;74.80;37.63;;;;;;;9.05;100.00;101914.31;5011000;28;20042;-64
2021/10/26 07:28:40;;;;;;;76.15;38.97;;;;;;;9.05;100.00;101919.59;5006261;28;20041;-62
2021/10/26 07:31:06;;;;;;;75.72;36.88;;;;;;;9.07;100.00;101910.00;5010959;28;20156;-63
2021/10/26 07:33:34;;;;;;;75.55;36.72;;;;;;;9.04;100.00;101919.56;5009710;28;20022;-63
2021/10/26 07:36:02;;;;;;;75.63;36.33;;;;;;;9.07;100.00;101917.00;5009789;28;20390;-64
2021/10/26 07:38:35;;;;;;;74.07;37.20;;;;;;;9.08;100.00;101919.69;5011164;28;20018;-63
2021/10/26 07:41:02;;;;;;;74.20;36.78;;;;;;;9.16;100.00;101927.81;5019094;28;20040;-63
2021/10/26 07:43:29;;;;;;;78.80;37.58;;;;;;;9.20;100.00;101934.06;5012201;28;20032;-62
2021/10/26 07:45:56;;;;;;;83.05;36.00;;;;;;;9.28;100.00;101921.09;5012362;28;20025;-62
2021/10/26 07:48:21;;;;;;;77.20;37.67;;;;;;;9.27;100.00;101925.47;5014294;28;20026;-62
2021/10/26 07:50:47;;;;;;;70.38;35.20;;;;;;;9.31;100.00;101924.69;5019353;28;20040;-62
2021/10/26 07:53:13;;;;;;;65.30;33.75;;;;;;;9.36;100.00;101928.38;5013991;28;20013;-62
2021/10/26 07:55:38;;;;;;;68.10;34.33;;;;;;;9.40;100.00;101924.94;5010222;28;20514;-62
2021/10/26 07:58:04;;;;;;;65.80;34.42;;;;;;;9.47;100.00;101930.41;5008708;28;20095;-63
2021/10/26 08:00:30;;;;;;;68.88;35.20;;;;;;;9.49;100.00;101932.19;5015654;28;20435;-64
2021/10/26 08:02:55;;;;;;;68.40;35.40;;;;;;;9.54;100.00;101927.06;5005310;28;20113;-63
2021/10/26 08:05:21;;;;;;;64.88;34.92;;;;;;;9.62;100.00;101940.44;5007189;28;20030;-62
2021/10/26 08:07:46;;;;;;;66.13;35.15;;;;;;;9.68;100.00;101935.31;5005634;28;20485;-63
2021/10/26 08:10:12;;;;;;;65.78;35.17;;;;;;;9.76;100.00;101921.44;5016076;28;20025;-63
2021/10/26 08:12:37;;;;;;;67.72;33.85;;;;;;;9.82;100.00;101931.28;5012100;28;20492;-63
2021/10/26 08:15:03;;;;;;;58.58;32.60;;;;;;;9.89;100.00;101934.97;5013640;28;20028;-63
2021/10/26 08:17:29;;;;;;;60.60;32.50;;;;;;;9.96;100.00;101934.28;5013262;28;20025;-62
2021/10/26 08:19:54;;;;;;;62.90;33.17;;;;;;;10.06;100.00;101920.44;5013270;28;20106;-63
2021/10/26 08:22:22;;;;;;;59.55;32.15;;;;;;;10.11;100.00;101929.34;5009492;28;20065;-63
2021/10/26 08:24:51;;;;;;;61.78;32.50;;;;;;;10.21;100.00;101927.81;5013217;28;20056;-63
2021/10/26 08:27:18;;;;;;;58.85;31.25;;;;;;;10.19;100.00;101931.25;5013133;28;20038;-63
2021/10/26 08:37:41;;;;;;;56.50;28.98;;;;;;;10.02;100.00;101929.13;5005334;28;20038;-64
2021/10/26 08:40:07;;;;;;;54.63;29.65;;;;;;;10.08;100.00;101938.94;5003576;28;20527;-65
2021/10/26 08:42:32;;;;;;;56.03;31.30;;;;;;;10.08;100.00;101938.94;5002743;28;20455;-64
2021/10/26 08:45:00;;;;;;;57.65;30.67;;;;;;;10.10;100.00;101931.94;5004917;28;20022;-66
2021/10/26 08:47:26;;;;;;;57.97;30.65;;;;;;;10.11;100.00;101934.63;5001587;28;20034;-64
2021/10/26 08:49:52;;;;;;;57.00;29.08;;;;;;;10.15;100.00;101943.53;5005226;28;20100;-63
2021/10/26 08:52:19;;;;;;;53.90;28.48;;;;;;;10.18;100.00;101945.31;5001860;28;20454;-63
2021/10/26 08:54:46;;;;;;;55.85;30.50;;;;;;;10.21;100.00;101950.72;5004331;28;20022;-65
2021/10/26 08:57:11;;;;;;;58.05;30.27;;;;;;;10.23;100.00;101944.56;5002852;28;20060;-64
2021/10/26 08:59:36;;;;;;;55.80;30.00;;;;;;;10.28;100.00;101947.31;5003177;28;20046;-63
2021/10/26 09:02:02;;;;;;;56.95;30.55;;;;;;;10.35;100.00;101949.28;5003986;28;20523;-65
2021/10/26 09:04:32;;;;;;;54.63;29.15;;;;;;;10.39;100.00;101944.97;5001789;28;20054;-63
2021/10/26 09:07:05;;;;;;;57.25;31.27;;;;;;;10.27;100.00;101925.28;5004204;28;20030;-71
2021/10/26 09:09:36;;;;;;;58.60;30.02;;;;;;;10.29;100.00;101939.47;5000382;28;20027;-71
2021/10/26 09:17:50;;;;;;;58.30;30.85;;;;;;;10.47;100.00;101930.19;5012921;28;20381;-71
2021/10/26 09:20:21;;;;;;;57.20;31.30;;;;;;;10.63;100.00;101928.78;5012844;28;20022;-70
2021/10/26 09:22:52;;;;;;;56.55;30.10;;;;;;;10.84;100.00;101930.06;5012924;28;20092;-71
2021/10/26 09:25:20;;;;;;;58.67;31.58;;;;;;;10.98;100.00;101934.78;5011525;28;20504;-71
2021/10/26 09:27:46;;;;;;;61.58;30.98;;;;;;;11.05;100.00;101937.53;5012615;28;20030;-71
2021/10/26 09:30:15;;;;;;;55.95;30.48;;;;;;;11.14;100.00;101943.03;5012648;28;20030;-71
2021/10/26 09:32:47;;;;;;;57.92;31.55;;;;;;;11.24;100.00;101945.00;5012627;28;20022;-68
2021/10/26 09:35:16;;;;;;;58.00;31.70;;;;;;;11.27;100.00;101949.44;5012655;28;20080;-69
2021/10/26 09:37:48;;;;;;;56.83;30.20;;;;;;;11.23;100.00;101943.19;5009905;28;20050;-71
2021/10/26 09:40:14;;;;;;;55.55;31.48;;;;;;;11.19;100.00;101940.47;5003234;28;20038;-72
2021/10/26 09:42:51;;;;;;;53.67;28.90;;;;;;;11.18;100.00;101944.84;5002962;28;20085;-72
2021/10/26 09:45:25;;;;;;;61.58;31.90;;;;;;;11.31;100.00;101949.53;5002871;28;20026;-72
2021/10/26 09:47:54;;;;;;;54.47;29.83;;;;;;;11.39;100.00;101944.38;5001017;28;20505;-71
2021/10/26 09:50:20;;;;;;;55.30;29.05;;;;;;;11.32;100.00;101943.34;5003724;28;20027;-72
2021/10/26 09:52:49;;;;;;;56.13;31.20;;;;;;;11.27;100.00;101945.03;5002259;28;20105;-73
2021/10/26 09:55:19;;;;;;;52.80;29.73;;;;;;;11.29;100.00;101947.72;5003159;28;20378;-73
2021/10/26 09:57:57;;;;;;;53.05;28.90;;;;;;;11.33;100.00;101944.28;5002818;28;20069;-72
2021/10/26 10:00:27;;;;;;;60.25;31.17;;;;;;;11.32;100.00;101951.31;5004403;28;20101;-72
2021/10/26 10:03:03;;;;;;;55.25;29.60;;;;;;;11.43;100.00;101951.53;5001359;28;20026;-69
2021/10/26 10:05:30;;;;;;;53.00;27.98;;;;;;;11.48;100.00;101946.31;5007543;28;20520;-73
2021/10/26 10:07:55;;;;;;;53.75;27.70;;;;;;;11.63;100.00;101956.28;5012099;28;20420;-72
2021/10/26 10:10:21;;;;;;;55.03;28.67;;;;;;;11.79;100.00;101944.19;5012492;28;20036;-72
2021/10/26 10:13:01;;;;;;;52.63;27.52;;;;;;;12.00;100.00;101947.22;5012416;28;20057;-69
2021/10/26 10:15:27;;;;;;;51.72;26.85;;;;;;;12.07;100.00;101947.31;5004917;28;20030;-72
2021/10/26 10:17:54;;;;;;;53.03;27.70;;;;;;;12.05;100.00;101947.28;5003994;28;20369;-64
2021/10/26 10:20:19;;;;;;;51.60;26.30;;;;;;;11.99;100.00;101932.19;5001533;28;20092;-63
2021/10/26 10:22:47;;;;;;;49.13;26.05;;;;;;;11.94;100.00;101940.91;5004750;28;20430;-65
2021/10/26 10:25:14;;;;;;;49.63;26.48;;;;;;;11.88;100.00;101943.44;5005964;28;20531;-67
2021/10/26 10:27:43;;;;;;;49.42;25.95;;;;;;;11.94;100.00;101948.88;5005382;28;20030;-63
2021/10/26 10:30:09;;;;;;;50.33;27.38;;;;;;;12.14;100.00;101941.25;5006403;28;20050;-63
2021/10/26 10:32:35;;;;;;;48.55;23.52;;;;;;;12.21;100.00;101944.00;5005130;28;20023;-63
2021/10/26 10:35:06;;;;;;;46.03;24.27;;;;;;;12.19;100.00;101943.09;5007798;28;20071;-65
2021/10/26 10:37:32;;;;;;;48.42;24.70;;;;;;;12.31;100.00;101926.47;5004260;28;20121;-65
2021/10/26 10:39:59;;;;;;;47.45;24.17;;;;;;;12.48;99.73;101926.72;5007528;28;20499;-66
2021/10/26 10:42:26;;;;;;;43.67;22.40;;;;;;;12.67;98.40;101926.97;5004203;28;20034;-63
2021/10/26 10:44:59;;;;;;;45.08;22.30;;;;;;;13.53;93.30;101927.94;5006673;28;20021;-64
2021/10/26 10:47:37;;;;;;;41.20;20.73;;;;;;;14.57;87.46;101926.03;5004065;28;20500;-68
2021/10/26 10:50:04;;;;;;;40.13;19.38;;;;;;;14.50;83.04;101929.53;5011994;28;20473;-63
2021/10/26 10:52:34;;;;;;;38.08;17.83;;;;;;;14.10;85.08;101935.50;5015405;28;20389;-70
2021/10/26 10:55:21;;;;;;;37.90;17.23;;;;;;;13.97;86.19;101912.38;5011580;28;20022;-65
2021/10/26 10:57:46;;;;;;;40.03;17.42;;;;;;;14.46;84.28;101918.88;5008511;28;20034;-63
2021/10/26 11:00:24;;;;;;;35.60;16.67;;;;;;;15.08;81.23;101924.47;5010776;28;20091;-62
2021/10/26 11:02:57;;;;;;;34.17;16.13;;;;;;;15.58;78.25;101920.13;5008505;28;20030;-63
2021/10/26 11:05:38;;;;;;;34.38;14.23;;;;;;;16.20;74.88;101917.44;5007113;28;20063;-64
2021/10/26 11:08:14;;;;;;;35.08;14.65;;;;;;;16.24;72.43;101908.53;5015436;28;20037;-64
2021/10/26 11:10:49;;;;;;;32.28;13.80;;;;;;;16.51;72.68;101910.25;5017291;28;20018;-63
2021/10/26 11:13:19;;;;;;;33.90;13.77;;;;;;;16.34;72.30;101906.75;5016425;28;20038;-62
2021/10/26 11:15:47;;;;;;;31.92;12.68;;;;;;;16.65;69.15;101907.53;5017899;28;20022;-63
2021/10/26 11:18:34;;;;;;;33.95;13.23;;;;;;;17.43;68.48;101903.56;5017743;28;20053;-64